createdAt,value
2018-06-03T00:01:39.504Z,6.63
2018-06-03T00:04:07.995Z,6.10
2018-06-03T00:06:36.535Z,5.73
2018-06-03T00:09:05.788Z,5.60
2018-06-03T00:11:34.283Z,6.10
2018-06-03T00:14:02.788Z,5.73
2018-06-03T00:16:31.355Z,4.97
2018-06-03T00:18:59.802Z,7.50
2018-06-03T00:21:51.423Z,6.00
2018-06-03T00:24:19.976Z,5.30
2018-06-03T00:26:48.487Z,6.07
2018-06-03T00:29:17.011Z,5.73
2018-06-03T00:31:45.534Z,5.53
2018-06-03T00:34:14.077Z,5.70
2018-06-03T00:36:47.852Z,5.50
2018-06-03T00:39:16.505Z,5.80
2018-06-03T00:41:45.011Z,6.80
2018-06-03T00:44:13.500Z,6.40
2018-06-03T00:46:41.996Z,5.93
2018-06-03T00:49:10.556Z,5.80
2018-06-03T00:51:39.052Z,5.70
2018-06-03T00:54:07.832Z,5.80
2018-06-03T00:56:47.461Z,5.40
2018-06-03T00:59:15.949Z,5.00
2018-06-03T01:01:44.392Z,6.40
2018-06-03T01:04:12.892Z,5.50
2018-06-03T01:06:41.535Z,5.10
2018-06-03T01:09:10.068Z,4.80
2018-06-03T01:11:38.756Z,5.17
2018-06-03T01:14:10.776Z,5.20
2018-06-03T01:16:39.392Z,5.63
2018-06-03T01:19:07.825Z,4.93
2018-06-03T01:21:36.352Z,5.10
2018-06-03T01:24:04.876Z,5.40
2018-06-03T01:26:33.447Z,5.87
2018-06-03T01:29:02.196Z,5.53
2018-06-03T01:31:30.755Z,6.13
2018-06-03T01:33:59.220Z,6.20
2018-06-03T01:36:27.744Z,5.20
2018-06-03T01:38:56.207Z,7.30
2018-06-03T01:41:24.755Z,6.07
2018-06-03T01:43:53.291Z,6.33
2018-06-03T01:46:21.807Z,5.90
2018-06-03T01:48:50.266Z,5.80
2018-06-03T01:51:18.789Z,5.83
2018-06-03T01:53:47.259Z,6.67
2018-06-03T01:56:15.723Z,5.37
2018-06-03T01:58:44.200Z,5.73
2018-06-03T02:01:12.701Z,6.43
2018-06-03T02:03:41.147Z,5.90
2018-06-03T02:06:09.635Z,6.27
2018-06-03T02:08:38.100Z,5.17
2018-06-03T02:11:06.664Z,5.53
2018-06-03T02:13:35.204Z,5.93
2018-06-03T02:16:04.012Z,5.37
2018-06-03T02:18:32.644Z,4.80
2018-06-03T02:21:01.064Z,4.83
2018-06-03T02:23:29.708Z,4.60
2018-06-03T02:25:58.156Z,5.00
2018-06-03T02:28:26.712Z,6.50
2018-06-03T02:30:55.152Z,5.73
2018-06-03T02:33:23.596Z,4.17
2018-06-03T02:35:52.251Z,5.30
2018-06-03T02:38:20.707Z,4.73
2018-06-03T02:40:49.141Z,5.40
2018-06-03T02:43:17.640Z,5.53
2018-06-03T02:45:46.173Z,5.80
2018-06-03T02:48:15.135Z,5.40
2018-06-03T02:50:43.587Z,4.60
2018-06-03T02:53:12.064Z,5.80
2018-06-03T02:55:40.608Z,5.03
2018-06-03T02:58:09.024Z,5.50
2018-06-03T03:00:37.704Z,5.00
2018-06-03T03:03:06.148Z,4.13
2018-06-03T03:05:34.583Z,5.67
2018-06-03T03:08:03.037Z,6.27
2018-06-03T03:10:31.540Z,6.33
2018-06-03T03:13:00.280Z,5.10
2018-06-03T03:15:28.811Z,5.73
2018-06-03T03:17:57.295Z,5.17
2018-06-03T03:20:25.744Z,5.40
2018-06-03T03:22:54.187Z,4.57
2018-06-03T03:25:22.709Z,5.77
2018-06-03T03:27:51.176Z,5.43
2018-06-03T03:30:19.679Z,5.67
2018-06-03T03:32:48.174Z,7.00
2018-06-03T03:35:16.747Z,5.47
2018-06-03T03:37:45.628Z,5.20
2018-06-03T03:40:14.207Z,4.80
2018-06-03T03:42:42.641Z,6.10
2018-06-03T03:45:11.172Z,5.00
2018-06-03T03:47:39.627Z,4.70
2018-06-03T03:50:08.099Z,4.93
2018-06-03T03:52:36.543Z,5.20
2018-06-03T03:55:05.220Z,5.73
2018-06-03T03:57:33.715Z,6.40
2018-06-03T04:00:02.252Z,4.60
2018-06-03T04:02:30.726Z,5.97
2018-06-03T04:04:59.223Z,5.70
2018-06-03T04:07:27.966Z,5.37
2018-06-03T04:09:56.543Z,5.40
2018-06-03T04:12:24.992Z,5.67
2018-06-03T04:14:53.536Z,6.00
2018-06-03T04:17:22.063Z,5.67
2018-06-03T04:19:50.639Z,5.00
2018-06-03T04:22:19.167Z,6.33
2018-06-03T04:24:47.651Z,5.13
2018-06-03T04:27:16.184Z,5.23
2018-06-03T04:29:44.649Z,6.03
2018-06-03T04:32:13.424Z,4.83
2018-06-03T04:34:41.936Z,5.63
2018-06-03T04:37:10.451Z,5.60
2018-06-03T04:39:38.947Z,4.70
2018-06-03T04:42:07.439Z,5.27
2018-06-03T04:44:36.199Z,4.20
2018-06-03T04:47:04.659Z,5.47
2018-06-03T04:49:33.099Z,5.80
2018-06-03T04:52:01.634Z,5.37
2018-06-03T04:54:30.136Z,4.20
2018-06-03T04:56:58.606Z,4.70
2018-06-03T04:59:27.073Z,4.20
2018-06-03T05:01:55.583Z,4.53
2018-06-03T05:04:24.119Z,5.80
2018-06-03T05:06:52.671Z,3.27
2018-06-03T05:09:21.344Z,4.70
2018-06-03T05:11:49.796Z,5.33
2018-06-03T05:14:18.339Z,4.70
2018-06-03T05:16:46.849Z,4.83
2018-06-03T05:19:15.393Z,5.80
2018-06-03T05:21:43.899Z,4.77
2018-06-03T05:24:12.371Z,5.23
2018-06-03T05:26:41.003Z,4.60
2018-06-03T05:29:09.524Z,5.10
2018-06-03T05:31:38.035Z,4.90
2018-06-03T05:34:06.735Z,4.93
2018-06-03T05:36:35.223Z,4.57
2018-06-03T05:39:04.598Z,4.83
2018-06-03T05:41:33.139Z,4.90
2018-06-03T05:44:01.599Z,4.40
2018-06-03T05:46:30.131Z,4.50
2018-06-03T05:48:58.656Z,4.90
2018-06-03T05:51:27.274Z,4.70
2018-06-03T05:53:55.783Z,4.60
2018-06-03T05:56:24.295Z,5.00
2018-06-03T05:58:52.727Z,4.73
2018-06-03T06:01:21.176Z,5.03
2018-06-03T06:03:49.956Z,4.50
2018-06-03T06:06:18.596Z,4.27
2018-06-03T06:08:47.063Z,4.03
2018-06-03T06:11:15.591Z,4.13
2018-06-03T06:13:44.110Z,3.47
2018-06-03T06:16:12.736Z,3.60
2018-06-03T06:18:41.344Z,4.83
2018-06-03T06:21:09.872Z,4.60
2018-06-03T06:23:38.331Z,4.73
2018-06-03T06:26:06.935Z,4.63
2018-06-03T06:28:35.548Z,4.33
2018-06-03T06:31:03.976Z,4.27
2018-06-03T06:33:32.431Z,6.50
2018-06-03T06:36:00.945Z,5.53
2018-06-03T06:38:29.405Z,4.87
2018-06-03T06:40:57.880Z,5.63
2018-06-03T06:43:26.388Z,6.10
2018-06-03T06:45:54.995Z,5.73
2018-06-03T06:48:23.496Z,5.80
2018-06-03T06:50:51.976Z,5.00
2018-06-03T06:53:20.499Z,5.00
2018-06-03T06:55:48.969Z,5.97
2018-06-03T06:58:17.655Z,5.27
2018-06-03T07:00:46.193Z,5.43
2018-06-03T07:03:14.673Z,6.77
2018-06-03T07:05:43.419Z,6.37
2018-06-03T07:08:11.867Z,5.87
2018-06-03T07:10:40.308Z,5.97
2018-06-03T07:13:08.878Z,4.87
2018-06-03T07:15:37.332Z,4.87
2018-06-03T07:18:05.845Z,5.67
2018-06-03T07:20:34.327Z,5.30
2018-06-03T07:23:02.815Z,5.80
2018-06-03T07:25:31.333Z,4.60
2018-06-03T07:27:59.811Z,5.70
2018-06-03T07:30:28.503Z,5.77
2018-06-03T07:32:57.013Z,5.03
2018-06-03T07:35:25.591Z,5.67
2018-06-03T07:37:54.064Z,5.50
2018-06-03T07:40:22.471Z,4.73
2018-06-03T07:42:51.347Z,5.03
2018-06-03T07:45:19.900Z,4.87
2018-06-03T07:47:48.347Z,4.90
2018-06-03T07:50:16.889Z,5.07
2018-06-03T07:52:45.473Z,5.47
2018-06-03T07:55:14.228Z,4.63
2018-06-03T07:57:42.660Z,3.93
2018-06-03T08:00:11.195Z,3.93
2018-06-03T08:02:39.663Z,2.87
2018-06-03T08:05:08.173Z,3.27
2018-06-03T08:07:36.804Z,3.67
2018-06-03T08:10:05.472Z,2.90
2018-06-03T08:12:34.004Z,4.10
2018-06-03T08:15:02.444Z,4.77
2018-06-03T08:17:31.011Z,4.07
2018-06-03T08:19:59.894Z,3.30
2018-06-03T08:22:28.535Z,2.93
2018-06-03T08:24:56.960Z,3.70
2018-06-03T08:27:25.524Z,2.60
2018-06-03T08:29:54.033Z,2.67
2018-06-03T08:32:22.689Z,3.10
2018-06-03T08:34:51.170Z,2.93
2018-06-03T08:37:19.679Z,2.70
2018-06-03T08:39:48.217Z,2.40
2018-06-03T08:42:16.700Z,3.13
2018-06-03T08:44:45.436Z,2.60
2018-06-03T08:47:13.968Z,2.97
2018-06-03T08:49:42.721Z,2.90
2018-06-03T08:52:11.696Z,2.47
2018-06-03T08:54:40.135Z,2.07
2018-06-03T08:57:08.673Z,3.00
2018-06-03T08:59:37.165Z,3.10
2018-06-03T09:02:05.695Z,2.40
2018-06-03T09:04:34.172Z,2.90
2018-06-03T09:07:02.632Z,2.40
2018-06-03T09:09:31.560Z,3.03
2018-06-03T09:12:00.137Z,2.60
2018-06-03T09:14:28.636Z,2.90
2018-06-03T09:16:57.067Z,2.67
2018-06-03T09:19:25.566Z,3.20
2018-06-03T09:21:54.433Z,2.80
2018-06-03T09:24:23.115Z,2.20
2018-06-03T09:26:51.556Z,1.97
2018-06-03T09:29:20.119Z,2.13
2018-06-03T09:31:48.592Z,2.17
2018-06-03T09:34:17.093Z,2.80
2018-06-03T09:36:45.584Z,2.43
2018-06-03T09:39:14.144Z,2.10
2018-06-03T09:41:42.683Z,2.70
2018-06-03T09:44:11.299Z,1.97
2018-06-03T09:46:39.777Z,2.27
2018-06-03T09:49:08.188Z,2.37
2018-06-03T09:51:36.672Z,2.10
2018-06-03T09:54:05.344Z,1.73
2018-06-03T09:56:33.793Z,2.00
2018-06-03T09:59:02.287Z,2.30
2018-06-03T10:01:30.820Z,1.53
2018-06-03T10:03:59.244Z,1.60
2018-06-03T10:06:27.724Z,1.83
2018-06-03T10:08:56.208Z,2.00
2018-06-03T10:11:24.696Z,1.50
2018-06-03T10:13:53.574Z,1.67
2018-06-03T10:16:22.045Z,1.80
2018-06-03T10:18:50.581Z,1.30
2018-06-03T10:21:19.104Z,1.73
2018-06-03T10:23:47.567Z,1.90
2018-06-03T10:26:16.263Z,2.30
2018-06-03T10:28:44.775Z,1.43
2018-06-03T10:31:13.310Z,1.70
2018-06-03T10:33:41.779Z,1.57
2018-06-03T10:36:10.267Z,1.90
2018-06-03T10:38:39.024Z,1.20
2018-06-03T10:41:07.560Z,1.47
2018-06-03T10:43:36.040Z,1.63
2018-06-03T10:46:04.566Z,1.60
2018-06-03T10:48:33.024Z,1.40
2018-06-03T10:51:01.923Z,1.50
2018-06-03T10:53:30.444Z,1.63
2018-06-03T10:55:58.880Z,1.83
2018-06-03T10:58:27.459Z,1.60
2018-06-03T11:00:55.935Z,1.90
2018-06-03T11:03:24.783Z,1.67
2018-06-03T11:05:53.331Z,1.57
2018-06-03T11:08:21.742Z,1.13
2018-06-03T11:10:50.219Z,1.33
2018-06-03T11:13:18.700Z,1.70
2018-06-03T11:15:47.184Z,1.60
2018-06-03T11:18:15.672Z,1.70
2018-06-03T11:20:44.164Z,1.60
2018-06-03T11:23:12.691Z,1.20
2018-06-03T11:25:41.156Z,1.90
2018-06-03T11:28:10.557Z,2.10
2018-06-03T11:30:39.075Z,1.50
2018-06-03T11:33:07.495Z,1.37
2018-06-03T11:35:36.078Z,1.77
2018-06-03T11:38:04.548Z,1.23
2018-06-03T11:40:33.317Z,1.07
2018-06-03T11:43:01.762Z,1.13
2018-06-03T11:45:30.220Z,1.53
2018-06-03T11:47:58.879Z,1.00
2018-06-03T11:50:27.445Z,1.43
2018-06-03T11:52:55.988Z,1.43
2018-06-03T11:55:24.546Z,1.70
2018-06-03T11:58:35.475Z,1.90
2018-06-03T12:01:03.971Z,1.67
2018-06-03T12:03:32.622Z,1.70
2018-06-03T12:06:01.131Z,1.60
2018-06-03T12:08:29.580Z,1.20
2018-06-03T12:10:58.355Z,1.90
2018-06-03T12:13:26.888Z,1.90
2018-06-03T12:15:55.392Z,1.60
2018-06-03T12:18:23.880Z,1.63
2018-06-03T12:20:52.335Z,1.23
2018-06-03T12:23:21.338Z,1.20
2018-06-03T12:25:49.868Z,1.60
2018-06-03T12:28:18.321Z,2.17
2018-06-03T12:30:46.881Z,1.40
2018-06-03T12:33:15.331Z,1.57
2018-06-03T12:35:44.216Z,1.13
2018-06-03T12:38:12.768Z,1.90
2018-06-03T12:40:41.239Z,1.70
2018-06-03T12:43:09.743Z,1.20
2018-06-03T12:45:38.208Z,2.00
2018-06-03T12:48:06.973Z,1.90
2018-06-03T12:50:35.432Z,1.50
2018-06-03T12:53:04.116Z,2.03
2018-06-03T12:55:32.612Z,1.30
2018-06-03T12:58:01.109Z,1.93
2018-06-03T13:00:29.549Z,1.77
2018-06-03T13:02:57.996Z,1.30
2018-06-03T13:05:26.656Z,1.60
2018-06-03T13:07:55.199Z,1.30
2018-06-03T13:10:23.687Z,1.50
2018-06-03T13:12:52.200Z,1.43
2018-06-03T13:15:20.672Z,5.13
2018-06-03T13:17:49.195Z,1.47
2018-06-03T13:20:17.638Z,1.10
2018-06-03T13:22:46.163Z,1.73
2018-06-03T13:25:14.616Z,1.60
2018-06-03T13:27:43.132Z,1.80
2018-06-03T13:30:11.612Z,1.30
2018-06-03T13:32:40.119Z,1.60
2018-06-03T13:35:08.659Z,1.30
2018-06-03T13:37:37.127Z,1.30
2018-06-03T13:40:05.687Z,1.80
2018-06-03T13:42:34.211Z,1.70
2018-06-03T13:45:02.717Z,1.20
2018-06-03T13:47:31.128Z,1.40
2018-06-03T13:49:59.747Z,2.77
2018-06-03T13:52:28.292Z,1.67
2018-06-03T13:54:56.777Z,1.73
2018-06-03T13:57:25.215Z,2.40
2018-06-03T13:59:53.695Z,1.70
2018-06-03T14:02:22.541Z,1.60
2018-06-03T14:04:51.291Z,1.80
2018-06-03T14:07:19.824Z,1.70
2018-06-03T14:09:48.245Z,1.70
2018-06-03T14:12:17.202Z,1.50
2018-06-03T14:14:45.643Z,2.43
2018-06-03T14:17:14.267Z,1.83
2018-06-03T14:19:42.793Z,1.30
2018-06-03T14:22:11.319Z,1.77
2018-06-03T14:24:39.839Z,1.30
2018-06-03T14:27:08.324Z,1.60
2018-06-03T14:29:36.764Z,1.37
2018-06-03T14:32:05.260Z,2.20
2018-06-03T14:34:33.703Z,2.63
2018-06-03T14:37:02.131Z,2.77
2018-06-03T14:39:30.607Z,1.90
2018-06-03T14:41:59.075Z,1.63
2018-06-03T14:44:27.687Z,1.50
2018-06-03T14:46:56.207Z,2.07
2018-06-03T14:49:24.628Z,2.30
2018-06-03T14:51:53.192Z,1.93
2018-06-03T14:54:21.608Z,1.83
2018-06-03T14:56:50.176Z,1.77
2018-06-03T14:59:21.624Z,2.10
2018-06-03T15:01:50.164Z,2.00
2018-06-03T15:04:18.659Z,1.70
2018-06-03T15:06:47.144Z,2.03
2018-06-03T15:09:15.662Z,1.73
2018-06-03T15:11:44.144Z,1.50
2018-06-03T15:14:12.644Z,1.70
2018-06-03T15:16:41.053Z,1.90
2018-06-03T15:19:09.632Z,1.60
2018-06-03T15:21:38.139Z,1.63
2018-06-03T15:24:06.672Z,1.60
2018-06-03T15:26:35.112Z,1.90
2018-06-03T15:29:03.691Z,1.67
2018-06-03T15:31:32.229Z,1.70
2018-06-03T15:34:00.740Z,1.30
2018-06-03T15:36:29.220Z,1.50
2018-06-03T15:38:57.648Z,1.20
2018-06-03T15:41:26.108Z,2.07
2018-06-03T15:43:54.655Z,1.57
2018-06-03T15:46:23.097Z,1.57
2018-06-03T15:48:51.623Z,1.70
2018-06-03T15:51:20.060Z,1.80
2018-06-03T15:53:48.618Z,1.30
2018-06-03T15:56:17.056Z,1.80
2018-06-03T15:58:45.607Z,1.70
2018-06-03T16:01:14.559Z,1.60
2018-06-03T16:03:42.987Z,1.67
2018-06-03T16:06:11.421Z,1.30
2018-06-03T16:08:39.896Z,1.60
2018-06-03T16:11:08.414Z,1.70
2018-06-03T16:13:36.945Z,2.30
2018-06-03T16:16:05.703Z,2.17
2018-06-03T16:18:34.283Z,2.03
2018-06-03T16:21:02.725Z,2.37
2018-06-03T16:23:31.251Z,1.53
2018-06-03T16:25:59.772Z,1.63
2018-06-03T16:28:28.276Z,1.60
2018-06-03T16:30:56.728Z,1.23
2018-06-03T16:33:25.257Z,1.10
2018-06-03T16:35:53.721Z,1.50
2018-06-03T16:38:22.166Z,2.27
2018-06-03T16:40:50.707Z,1.60
2018-06-03T16:43:19.368Z,1.70
2018-06-03T16:45:47.898Z,1.80
2018-06-03T16:48:16.400Z,1.50
2018-06-03T16:50:44.837Z,1.50
2018-06-03T16:53:13.525Z,2.13
2018-06-03T16:55:42.088Z,1.50
2018-06-03T16:58:10.548Z,1.47
2018-06-03T17:00:39.072Z,1.67
2018-06-03T17:03:07.483Z,1.77
2018-06-03T17:05:35.906Z,2.47
2018-06-03T17:08:04.461Z,1.40
2018-06-03T17:10:32.928Z,2.40
2018-06-03T17:13:01.384Z,2.07
2018-06-03T17:15:29.828Z,1.53
2018-06-03T17:17:58.348Z,2.17
2018-06-03T17:20:26.893Z,1.90
2018-06-03T17:22:55.306Z,2.13
2018-06-03T17:25:23.799Z,1.70
2018-06-03T17:27:52.228Z,1.70
2018-06-03T17:30:20.844Z,2.20
2018-06-03T17:32:49.361Z,2.33
2018-06-03T17:35:17.977Z,7.63
2018-06-03T17:37:46.467Z,5.57
2018-06-03T17:40:14.936Z,6.50
2018-06-03T17:42:43.728Z,6.23
2018-06-03T17:45:12.217Z,3.10
2018-06-03T17:47:40.734Z,1.37
2018-06-03T17:50:09.247Z,1.80
2018-06-03T17:52:37.748Z,1.50
2018-06-03T17:55:06.275Z,2.00
2018-06-03T17:57:34.821Z,2.20
2018-06-03T18:00:03.411Z,1.70
2018-06-03T18:02:32.007Z,1.50
2018-06-03T18:05:00.532Z,1.93
2018-06-03T18:07:29.011Z,1.97
2018-06-03T18:09:57.484Z,1.63
2018-06-03T18:12:25.997Z,1.63
2018-06-03T18:14:54.491Z,1.90
2018-06-03T18:17:22.960Z,1.80
2018-06-03T18:19:51.828Z,2.07
2018-06-03T18:22:20.349Z,1.93
2018-06-03T18:24:48.824Z,2.00
2018-06-03T18:27:17.299Z,2.13
2018-06-03T18:29:45.774Z,2.13
2018-06-03T18:32:14.271Z,1.87
2018-06-03T18:34:42.740Z,1.90
2018-06-03T18:37:11.215Z,1.93
2018-06-03T18:39:39.668Z,1.90
2018-06-03T18:42:08.248Z,2.03
2018-06-03T18:44:36.764Z,1.47
2018-06-03T18:47:05.305Z,2.10
2018-06-03T18:49:33.831Z,2.20
2018-06-03T18:52:02.428Z,2.27
2018-06-03T18:54:30.892Z,2.23
2018-06-03T18:56:59.390Z,1.93
2018-06-03T18:59:27.880Z,2.10
2018-06-03T19:01:56.562Z,1.80
2018-06-03T19:04:24.983Z,2.00
2018-06-03T19:06:53.416Z,2.33
2018-06-03T19:09:21.909Z,2.80
2018-06-03T19:11:50.532Z,2.17
2018-06-03T19:14:19.205Z,2.50
2018-06-03T19:16:47.765Z,2.27
2018-06-03T19:19:16.237Z,2.57
2018-06-03T19:21:44.776Z,2.30
2018-06-03T19:24:13.344Z,1.93
2018-06-03T19:26:41.833Z,1.80
2018-06-03T19:29:10.332Z,2.13
2018-06-03T19:31:39.376Z,2.20
2018-06-03T19:34:07.907Z,2.30
2018-06-03T19:36:36.348Z,2.10
2018-06-03T19:39:06.896Z,2.10
2018-06-03T19:41:35.431Z,1.97
2018-06-03T19:44:03.960Z,2.63
2018-06-03T19:46:32.454Z,1.93
2018-06-03T19:49:00.916Z,2.20
2018-06-03T19:51:29.471Z,2.77
2018-06-03T19:53:58.071Z,2.17
2018-06-03T19:56:26.651Z,2.50
2018-06-03T19:58:55.134Z,1.63
2018-06-03T20:01:23.719Z,2.50
2018-06-03T20:03:52.230Z,2.33
2018-06-03T20:06:20.740Z,2.60
2018-06-03T20:08:49.174Z,2.00
2018-06-03T20:11:17.690Z,2.47
2018-06-03T20:13:46.196Z,2.30
2018-06-03T20:16:14.675Z,2.07
2018-06-03T20:18:43.256Z,2.30
2018-06-03T20:21:12.979Z,2.50
2018-06-03T20:23:41.796Z,2.13
2018-06-03T20:26:11.285Z,3.27
2018-06-03T20:28:39.925Z,2.70
2018-06-03T20:31:08.424Z,2.60
2018-06-03T20:33:36.944Z,2.60
2018-06-03T20:36:05.511Z,2.77
2018-06-03T20:38:33.998Z,2.57
2018-06-03T20:41:02.557Z,2.57
2018-06-03T20:43:31.077Z,2.60
2018-06-03T20:45:59.592Z,3.03
2018-06-03T20:48:28.075Z,2.87
2018-06-03T20:50:56.535Z,3.30
2018-06-03T20:53:25.000Z,3.30
2018-06-03T20:55:53.463Z,2.53
2018-06-03T20:58:21.968Z,3.37
2018-06-03T21:00:50.416Z,3.30
2018-06-03T21:03:18.915Z,3.00
2018-06-03T21:05:47.536Z,2.90
2018-06-03T21:08:16.010Z,2.50
2018-06-03T21:10:44.563Z,2.80
2018-06-03T21:13:13.029Z,2.93
2018-06-03T21:15:41.523Z,3.00
2018-06-03T21:18:09.931Z,2.73
2018-06-03T21:20:38.479Z,3.47
2018-06-03T21:23:06.955Z,2.73
2018-06-03T21:25:35.483Z,3.33
2018-06-03T21:28:04.556Z,3.03
2018-06-03T21:30:33.071Z,2.80
2018-06-03T21:33:01.740Z,4.27
2018-06-03T21:35:30.275Z,3.40
2018-06-03T21:37:58.751Z,3.40
2018-06-03T21:40:27.489Z,3.90
2018-06-03T21:42:55.908Z,2.90
2018-06-03T21:45:24.331Z,2.97
2018-06-03T21:47:52.970Z,3.77
2018-06-03T21:50:21.542Z,3.30
2018-06-03T21:52:50.187Z,3.83
2018-06-03T21:55:18.615Z,3.30
2018-06-03T21:57:47.036Z,4.27
2018-06-03T22:00:15.519Z,3.30
2018-06-03T22:02:44.012Z,4.23
2018-06-03T22:05:12.772Z,2.10
2018-06-03T22:07:41.309Z,4.30
2018-06-03T22:10:09.803Z,3.87
2018-06-03T22:12:38.363Z,3.50
2018-06-03T22:15:07.029Z,4.00
2018-06-03T22:17:35.615Z,3.87
2018-06-03T22:20:04.159Z,3.53
2018-06-03T22:22:32.651Z,3.20
2018-06-03T22:25:01.127Z,3.40
2018-06-03T22:27:29.548Z,3.53
2018-06-03T22:29:58.178Z,3.77
2018-06-03T22:32:26.596Z,3.47
2018-06-03T22:34:55.020Z,3.30
2018-06-03T22:37:23.463Z,3.50
2018-06-03T22:39:51.920Z,3.90
2018-06-03T22:42:20.419Z,3.03
2018-06-03T22:44:48.899Z,5.37
2018-06-03T22:47:17.668Z,3.27
2018-06-03T22:49:46.110Z,3.40
2018-06-03T22:52:14.596Z,4.17
2018-06-03T22:54:43.199Z,4.77
2018-06-03T22:57:53.600Z,4.10
2018-06-03T23:00:30.008Z,3.53
2018-06-03T23:03:03.834Z,4.10
2018-06-03T23:05:32.405Z,3.60
2018-06-03T23:08:00.880Z,4.10
2018-06-03T23:10:29.390Z,4.33
2018-06-03T23:12:57.831Z,4.57
2018-06-03T23:15:26.290Z,4.30
2018-06-03T23:17:54.999Z,4.70
2018-06-03T23:20:23.531Z,4.93
2018-06-03T23:22:52.067Z,3.70
2018-06-03T23:25:20.557Z,3.93
2018-06-03T23:27:49.109Z,4.60
2018-06-03T23:30:17.778Z,4.33
2018-06-03T23:32:46.260Z,3.80
2018-06-03T23:35:14.695Z,5.17
2018-06-03T23:37:43.139Z,3.90
2018-06-03T23:40:11.588Z,4.93
2018-06-03T23:42:40.352Z,4.57
2018-06-03T23:45:08.883Z,3.97
2018-06-03T23:47:37.383Z,3.53
2018-06-03T23:50:05.991Z,4.30
2018-06-03T23:52:34.480Z,4.13
2018-06-03T23:55:03.338Z,4.27
2018-06-03T23:57:31.871Z,4.37
